sensor_id;sensor_type;location;lat;lon;timestamp;temperature;humidity
70051;SHT30;57391;51.306;22.680;2024-01-15T00:01:42;1.86;78.01
70051;SHT30;57391;51.306;22.680;2024-01-15T00:03:45;1.86;77.85
70051;SHT30;57391;51.306;22.680;2024-01-15T00:05:47;1.86;77.85
70051;SHT30;57391;51.306;22.680;2024-01-15T00:07:49;1.85;77.84
70051;SHT30;57391;51.306;22.680;2024-01-15T00:09:50;1.85;77.88
70051;SHT30;57391;51.306;22.680;2024-01-15T00:11:52;1.85;77.85
70051;SHT30;57391;51.306;22.680;2024-01-15T00:13:54;1.86;77.69
70051;SHT30;57391;51.306;22.680;2024-01-15T00:15:55;1.86;77.47
70051;SHT30;57391;51.306;22.680;2024-01-15T00:17:57;1.86;77.44
70051;SHT30;57391;51.306;22.680;2024-01-15T00:19:59;1.86;77.28
70051;SHT30;57391;51.306;22.680;2024-01-15T00:22:01;1.86;77.28
70051;SHT30;57391;51.306;22.680;2024-01-15T00:24:02;1.86;77.31
70051;SHT30;57391;51.306;22.680;2024-01-15T00:26:05;1.86;77.28
70051;SHT30;57391;51.306;22.680;2024-01-15T00:28:06;1.86;77.11
70051;SHT30;57391;51.306;22.680;2024-01-15T00:30:08;1.85;77.14
70051;SHT30;57391;51.306;22.680;2024-01-15T00:32:11;1.84;77.19
70051;SHT30;57391;51.306;22.680;2024-01-15T00:34:12;1.83;77.18
70051;SHT30;57391;51.306;22.680;2024-01-15T00:36:14;1.82;77.09
70051;SHT30;57391;51.306;22.680;2024-01-15T00:38:17;1.83;77.11
70051;SHT30;57391;51.306;22.680;2024-01-15T00:40:19;1.82;77.19
70051;SHT30;57391;51.306;22.680;2024-01-15T00:42:21;1.81;77.16
70051;SHT30;57391;51.306;22.680;2024-01-15T00:44:23;1.80;77.20
70051;SHT30;57391;51.306;22.680;2024-01-15T00:46:24;1.80;77.20
70051;SHT30;57391;51.306;22.680;2024-01-15T00:48:26;1.80;77.19
70051;SHT30;57391;51.306;22.680;2024-01-15T00:50:28;1.80;77.22
70051;SHT30;57391;51.306;22.680;2024-01-15T00:52:31;1.78;77.34
70051;SHT30;57391;51.306;22.680;2024-01-15T00:54:33;1.77;77.40
70051;SHT30;57391;51.306;22.680;2024-01-15T00:56:35;1.77;77.50
70051;SHT30;57391;51.306;22.680;2024-01-15T00:58:37;1.76;77.59
70051;SHT30;57391;51.306;22.680;2024-01-15T01:00:39;1.73;77.63
70051;SHT30;57391;51.306;22.680;2024-01-15T01:02:42;1.71;77.75
70051;SHT30;57391;51.306;22.680;2024-01-15T01:04:43;1.69;78.00
70051;SHT30;57391;51.306;22.680;2024-01-15T01:06:45;1.66;78.44
70051;SHT30;57391;51.306;22.680;2024-01-15T01:08:47;1.63;79.22
70051;SHT30;57391;51.306;22.680;2024-01-15T01:10:48;1.59;80.16
70051;SHT30;57391;51.306;22.680;2024-01-15T01:12:50;1.56;80.19
70051;SHT30;57391;51.306;22.680;2024-01-15T01:14:52;1.54;80.29
70051;SHT30;57391;51.306;22.680;2024-01-15T01:16:54;1.50;81.65
70051;SHT30;57391;51.306;22.680;2024-01-15T01:18:55;1.48;81.89
70051;SHT30;57391;51.306;22.680;2024-01-15T01:20:57;1.45;82.04
70051;SHT30;57391;51.306;22.680;2024-01-15T01:22:59;1.44;82.16
70051;SHT30;57391;51.306;22.680;2024-01-15T01:25:01;1.43;82.26
70051;SHT30;57391;51.306;22.680;2024-01-15T01:27:03;1.41;82.24
70051;SHT30;57391;51.306;22.680;2024-01-15T01:29:05;1.41;81.41
70051;SHT30;57391;51.306;22.680;2024-01-15T01:31:06;1.40;81.19
70051;SHT30;57391;51.306;22.680;2024-01-15T01:33:09;1.37;81.11
70051;SHT30;57391;51.306;22.680;2024-01-15T01:35:12;1.37;81.49
70051;SHT30;57391;51.306;22.680;2024-01-15T01:37:14;1.35;82.10
70051;SHT30;57391;51.306;22.680;2024-01-15T01:39:15;1.35;81.93
70051;SHT30;57391;51.306;22.680;2024-01-15T01:41:17;1.34;81.61
70051;SHT30;57391;51.306;22.680;2024-01-15T01:43:19;1.34;81.09
70051;SHT30;57391;51.306;22.680;2024-01-15T01:45:21;1.33;80.90
70051;SHT30;57391;51.306;22.680;2024-01-15T01:47:22;1.34;80.79
70051;SHT30;57391;51.306;22.680;2024-01-15T01:49:27;1.33;80.65
70051;SHT30;57391;51.306;22.680;2024-01-15T01:51:29;1.34;80.50
70051;SHT30;57391;51.306;22.680;2024-01-15T01:53:32;1.33;80.39
70051;SHT30;57391;51.306;22.680;2024-01-15T01:55:38;1.34;80.24
70051;SHT30;57391;51.306;22.680;2024-01-15T01:57:40;1.34;80.06
70051;SHT30;57391;51.306;22.680;2024-01-15T01:59:43;1.35;80.00
70051;SHT30;57391;51.306;22.680;2024-01-15T02:01:46;1.35;79.91
70051;SHT30;57391;51.306;22.680;2024-01-15T02:03:50;1.36;79.75
70051;SHT30;57391;51.306;22.680;2024-01-15T02:05:52;1.37;79.59
70051;SHT30;57391;51.306;22.680;2024-01-15T02:07:55;1.38;79.45
70051;SHT30;57391;51.306;22.680;2024-01-15T02:09:57;1.38;79.28
70051;SHT30;57391;51.306;22.680;2024-01-15T02:11:58;1.38;79.14
70051;SHT30;57391;51.306;22.680;2024-01-15T02:14:01;1.40;78.89
70051;SHT30;57391;51.306;22.680;2024-01-15T02:16:03;1.40;78.72
70051;SHT30;57391;51.306;22.680;2024-01-15T02:18:06;1.39;78.69
70051;SHT30;57391;51.306;22.680;2024-01-15T02:20:11;1.41;78.59
70051;SHT30;57391;51.306;22.680;2024-01-15T02:22:12;1.40;78.41
70051;SHT30;57391;51.306;22.680;2024-01-15T02:24:14;1.41;78.32
70051;SHT30;57391;51.306;22.680;2024-01-15T02:26:16;1.42;78.21
70051;SHT30;57391;51.306;22.680;2024-01-15T02:28:18;1.43;78.11
70051;SHT30;57391;51.306;22.680;2024-01-15T02:30:21;1.45;78.10
70051;SHT30;57391;51.306;22.680;2024-01-15T02:32:25;1.45;77.95
70051;SHT30;57391;51.306;22.680;2024-01-15T02:34:26;1.45;77.75
70051;SHT30;57391;51.306;22.680;2024-01-15T02:36:34;1.46;77.64
70051;SHT30;57391;51.306;22.680;2024-01-15T02:38:35;1.47;77.53
70051;SHT30;57391;51.306;22.680;2024-01-15T02:40:38;1.47;77.51
70051;SHT30;57391;51.306;22.680;2024-01-15T02:42:40;1.48;77.34
70051;SHT30;57391;51.306;22.680;2024-01-15T02:44:41;1.49;77.13
70051;SHT30;57391;51.306;22.680;2024-01-15T02:46:43;1.50;77.11
70051;SHT30;57391;51.306;22.680;2024-01-15T02:48:45;1.52;77.09
70051;SHT30;57391;51.306;22.680;2024-01-15T02:50:47;1.54;76.89
70051;SHT30;57391;51.306;22.680;2024-01-15T02:52:48;1.54;76.75
70051;SHT30;57391;51.306;22.680;2024-01-15T02:54:50;1.55;76.66
70051;SHT30;57391;51.306;22.680;2024-01-15T02:56:52;1.56;76.56
70051;SHT30;57391;51.306;22.680;2024-01-15T02:58:54;1.56;76.39
70051;SHT30;57391;51.306;22.680;2024-01-15T03:00:55;1.56;76.32
70051;SHT30;57391;51.306;22.680;2024-01-15T03:02:57;1.55;76.20
70051;SHT30;57391;51.306;22.680;2024-01-15T03:04:59;1.55;76.22
70051;SHT30;57391;51.306;22.680;2024-01-15T03:07:00;1.55;76.18
70051;SHT30;57391;51.306;22.680;2024-01-15T03:09:02;1.55;76.00
70051;SHT30;57391;51.306;22.680;2024-01-15T03:11:04;1.55;75.93
70051;SHT30;57391;51.306;22.680;2024-01-15T03:13:06;1.55;76.19
70051;SHT30;57391;51.306;22.680;2024-01-15T03:15:08;1.55;76.46
70051;SHT30;57391;51.306;22.680;2024-01-15T03:17:10;1.53;76.60
70051;SHT30;57391;51.306;22.680;2024-01-15T03:19:12;1.53;76.60
70051;SHT30;57391;51.306;22.680;2024-01-15T03:21:14;1.52;76.44
70051;SHT30;57391;51.306;22.680;2024-01-15T03:23:16;1.52;76.60
70051;SHT30;57391;51.306;22.680;2024-01-15T03:25:17;1.50;77.94
70051;SHT30;57391;51.306;22.680;2024-01-15T03:27:19;1.47;78.76
70051;SHT30;57391;51.306;22.680;2024-01-15T03:29:21;1.43;78.68
70051;SHT30;57391;51.306;22.680;2024-01-15T03:31:23;1.41;78.86
70051;SHT30;57391;51.306;22.680;2024-01-15T03:33:24;1.38;78.96
70051;SHT30;57391;51.306;22.680;2024-01-15T03:35:26;1.36;78.74
70051;SHT30;57391;51.306;22.680;2024-01-15T03:37:30;1.34;78.60
70051;SHT30;57391;51.306;22.680;2024-01-15T03:39:32;1.33;78.56
70051;SHT30;57391;51.306;22.680;2024-01-15T03:41:33;1.33;78.47
70051;SHT30;57391;51.306;22.680;2024-01-15T03:43:35;1.33;78.29
70051;SHT30;57391;51.306;22.680;2024-01-15T03:45:37;1.33;78.06
70051;SHT30;57391;51.306;22.680;2024-01-15T03:47:38;1.34;77.91
70051;SHT30;57391;51.306;22.680;2024-01-15T03:49:41;1.34;77.72
70051;SHT30;57391;51.306;22.680;2024-01-15T03:51:42;1.36;77.39
70051;SHT30;57391;51.306;22.680;2024-01-15T03:53:44;1.37;77.28
70051;SHT30;57391;51.306;22.680;2024-01-15T03:55:46;1.37;77.14
70051;SHT30;57391;51.306;22.680;2024-01-15T03:57:48;1.38;77.07
70051;SHT30;57391;51.306;22.680;2024-01-15T03:59:50;1.39;76.90
70051;SHT30;57391;51.306;22.680;2024-01-15T04:01:51;1.40;76.81
70051;SHT30;57391;51.306;22.680;2024-01-15T04:03:53;1.41;76.61
70051;SHT30;57391;51.306;22.680;2024-01-15T04:05:56;1.42;76.41
70051;SHT30;57391;51.306;22.680;2024-01-15T04:07:58;1.42;76.21
70051;SHT30;57391;51.306;22.680;2024-01-15T04:09:59;1.45;76.16
70051;SHT30;57391;51.306;22.680;2024-01-15T04:12:01;1.45;75.94
70051;SHT30;57391;51.306;22.680;2024-01-15T04:14:03;1.46;75.72
70051;SHT30;57391;51.306;22.680;2024-01-15T04:16:05;1.47;75.41
70051;SHT30;57391;51.306;22.680;2024-01-15T04:18:06;1.48;75.40
70051;SHT30;57391;51.306;22.680;2024-01-15T04:20:08;1.50;75.32
70051;SHT30;57391;51.306;22.680;2024-01-15T04:22:11;1.50;75.01
70051;SHT30;57391;51.306;22.680;2024-01-15T04:24:13;1.51;74.95
70051;SHT30;57391;51.306;22.680;2024-01-15T04:26:14;1.53;74.76
70051;SHT30;57391;51.306;22.680;2024-01-15T04:28:16;1.52;74.72
70051;SHT30;57391;51.306;22.680;2024-01-15T04:30:18;1.53;74.63
70051;SHT30;57391;51.306;22.680;2024-01-15T04:32:20;1.53;74.44
70051;SHT30;57391;51.306;22.680;2024-01-15T04:34:21;1.54;74.31
70051;SHT30;57391;51.306;22.680;2024-01-15T04:36:23;1.55;74.21
70051;SHT30;57391;51.306;22.680;2024-01-15T04:38:25;1.57;74.09
70051;SHT30;57391;51.306;22.680;2024-01-15T04:40:26;1.58;74.04
70051;SHT30;57391;51.306;22.680;2024-01-15T04:42:28;1.60;73.70
70051;SHT30;57391;51.306;22.680;2024-01-15T04:44:30;1.59;73.64
70051;SHT30;57391;51.306;22.680;2024-01-15T04:46:32;1.59;73.51
70051;SHT30;57391;51.306;22.680;2024-01-15T04:48:34;1.59;73.19
70051;SHT30;57391;51.306;22.680;2024-01-15T04:50:36;1.59;73.16
70051;SHT30;57391;51.306;22.680;2024-01-15T04:52:38;1.60;73.15
70051;SHT30;57391;51.306;22.680;2024-01-15T04:54:39;1.62;73.00
70051;SHT30;57391;51.306;22.680;2024-01-15T04:56:41;1.62;72.71
70051;SHT30;57391;51.306;22.680;2024-01-15T04:58:43;1.63;72.74
70051;SHT30;57391;51.306;22.680;2024-01-15T05:00:45;1.64;72.64
70051;SHT30;57391;51.306;22.680;2024-01-15T05:02:47;1.64;72.82
70051;SHT30;57391;51.306;22.680;2024-01-15T05:04:48;1.63;72.72
70051;SHT30;57391;51.306;22.680;2024-01-15T05:06:50;1.63;72.72
70051;SHT30;57391;51.306;22.680;2024-01-15T05:08:52;1.62;72.71
70051;SHT30;57391;51.306;22.680;2024-01-15T05:10:54;1.62;72.89
70051;SHT30;57391;51.306;22.680;2024-01-15T05:12:55;1.61;73.19
70051;SHT30;57391;51.306;22.680;2024-01-15T05:14:57;1.60;73.54
70051;SHT30;57391;51.306;22.680;2024-01-15T05:16:59;1.57;74.15
70051;SHT30;57391;51.306;22.680;2024-01-15T05:19:01;1.54;74.65
70051;SHT30;57391;51.306;22.680;2024-01-15T05:21:03;1.51;75.19
70051;SHT30;57391;51.306;22.680;2024-01-15T05:23:05;1.47;76.13
70051;SHT30;57391;51.306;22.680;2024-01-15T05:25:07;1.40;78.57
70051;SHT30;57391;51.306;22.680;2024-01-15T05:27:09;1.32;79.75
70051;SHT30;57391;51.306;22.680;2024-01-15T05:29:10;1.27;79.54
70051;SHT30;57391;51.306;22.680;2024-01-15T05:31:12;1.22;79.66
70051;SHT30;57391;51.306;22.680;2024-01-15T05:33:14;1.18;79.76
70051;SHT30;57391;51.306;22.680;2024-01-15T05:35:16;1.14;79.70
70051;SHT30;57391;51.306;22.680;2024-01-15T05:37:18;1.12;79.72
70051;SHT30;57391;51.306;22.680;2024-01-15T05:39:20;1.10;79.70
70051;SHT30;57391;51.306;22.680;2024-01-15T05:41:22;1.09;79.57
70051;SHT30;57391;51.306;22.680;2024-01-15T05:43:23;1.09;79.44
70051;SHT30;57391;51.306;22.680;2024-01-15T05:45:29;1.10;79.18
70051;SHT30;57391;51.306;22.680;2024-01-15T05:47:32;1.11;78.93
70051;SHT30;57391;51.306;22.680;2024-01-15T05:49:34;1.12;78.69
70051;SHT30;57391;51.306;22.680;2024-01-15T05:51:36;1.14;78.29
70051;SHT30;57391;51.306;22.680;2024-01-15T05:53:37;1.16;78.06
70051;SHT30;57391;51.306;22.680;2024-01-15T05:55:41;1.17;77.85
70051;SHT30;57391;51.306;22.680;2024-01-15T05:57:43;1.20;77.65
70051;SHT30;57391;51.306;22.680;2024-01-15T05:59:45;1.22;77.32
70051;SHT30;57391;51.306;22.680;2024-01-15T06:01:47;1.25;77.16
70051;SHT30;57391;51.306;22.680;2024-01-15T06:03:49;1.28;77.06
70051;SHT30;57391;51.306;22.680;2024-01-15T06:05:51;1.30;76.82
70051;SHT30;57391;51.306;22.680;2024-01-15T06:07:52;1.33;76.53
70051;SHT30;57391;51.306;22.680;2024-01-15T06:09:54;1.35;76.41
70051;SHT30;57391;51.306;22.680;2024-01-15T06:11:58;1.37;76.31
70051;SHT30;57391;51.306;22.680;2024-01-15T06:14:00;1.39;76.38
70051;SHT30;57391;51.306;22.680;2024-01-15T06:16:02;1.40;76.28
70051;SHT30;57391;51.306;22.680;2024-01-15T06:18:04;1.42;76.26
70051;SHT30;57391;51.306;22.680;2024-01-15T06:20:06;1.43;76.30
70051;SHT30;57391;51.306;22.680;2024-01-15T06:22:10;1.45;76.39
70051;SHT30;57391;51.306;22.680;2024-01-15T06:24:12;1.46;76.32
70051;SHT30;57391;51.306;22.680;2024-01-15T06:26:14;1.47;76.24
70051;SHT30;57391;51.306;22.680;2024-01-15T06:28:16;1.48;76.25
70051;SHT30;57391;51.306;22.680;2024-01-15T06:30:18;1.48;76.30
70051;SHT30;57391;51.306;22.680;2024-01-15T06:32:20;1.49;76.32
70051;SHT30;57391;51.306;22.680;2024-01-15T06:34:22;1.49;76.40
70051;SHT30;57391;51.306;22.680;2024-01-15T06:36:23;1.49;76.40
70051;SHT30;57391;51.306;22.680;2024-01-15T06:38:25;1.48;76.46
70051;SHT30;57391;51.306;22.680;2024-01-15T06:40:27;1.48;76.45
70051;SHT30;57391;51.306;22.680;2024-01-15T06:42:29;1.48;76.63
70051;SHT30;57391;51.306;22.680;2024-01-15T06:44:30;1.47;76.71
70051;SHT30;57391;51.306;22.680;2024-01-15T06:46:32;1.47;76.69
70051;SHT30;57391;51.306;22.680;2024-01-15T06:48:34;1.48;76.79
70051;SHT30;57391;51.306;22.680;2024-01-15T06:50:36;1.48;76.80
70051;SHT30;57391;51.306;22.680;2024-01-15T06:52:38;1.49;76.74
70051;SHT30;57391;51.306;22.680;2024-01-15T06:54:39;1.50;76.75
70051;SHT30;57391;51.306;22.680;2024-01-15T06:56:41;1.50;76.84
70051;SHT30;57391;51.306;22.680;2024-01-15T06:58:43;1.51;76.84
70051;SHT30;57391;51.306;22.680;2024-01-15T07:00:45;1.50;76.86
70051;SHT30;57391;51.306;22.680;2024-01-15T07:02:46;1.52;76.91
70051;SHT30;57391;51.306;22.680;2024-01-15T07:04:48;1.54;77.00
70051;SHT30;57391;51.306;22.680;2024-01-15T07:06:50;1.54;77.07
70051;SHT30;57391;51.306;22.680;2024-01-15T07:08:52;1.54;77.31
70051;SHT30;57391;51.306;22.680;2024-01-15T07:10:53;1.54;77.43
70051;SHT30;57391;51.306;22.680;2024-01-15T07:12:55;1.53;77.44
70051;SHT30;57391;51.306;22.680;2024-01-15T07:14:57;1.53;77.38
70051;SHT30;57391;51.306;22.680;2024-01-15T07:16:59;1.54;77.29
70051;SHT30;57391;51.306;22.680;2024-01-15T07:19:01;1.54;77.16
70051;SHT30;57391;51.306;22.680;2024-01-15T07:21:02;1.53;77.09
70051;SHT30;57391;51.306;22.680;2024-01-15T07:23:05;1.55;76.94
70051;SHT30;57391;51.306;22.680;2024-01-15T07:25:08;1.56;76.78
70051;SHT30;57391;51.306;22.680;2024-01-15T07:27:09;1.56;76.57
70051;SHT30;57391;51.306;22.680;2024-01-15T07:29:12;1.58;76.60
70051;SHT30;57391;51.306;22.680;2024-01-15T07:31:15;1.58;76.41
70051;SHT30;57391;51.306;22.680;2024-01-15T07:33:19;1.59;76.16
70051;SHT30;57391;51.306;22.680;2024-01-15T07:35:20;1.61;76.45
70051;SHT30;57391;51.306;22.680;2024-01-15T07:37:23;1.63;76.94
70051;SHT30;57391;51.306;22.680;2024-01-15T07:39:25;1.63;76.59
70051;SHT30;57391;51.306;22.680;2024-01-15T07:41:27;1.63;76.36
70051;SHT30;57391;51.306;22.680;2024-01-15T07:43:29;1.66;76.19
70051;SHT30;57391;51.306;22.680;2024-01-15T07:45:31;1.67;75.90
70051;SHT30;57391;51.306;22.680;2024-01-15T07:47:32;1.68;75.51
70051;SHT30;57391;51.306;22.680;2024-01-15T07:49:34;1.70;75.19
70051;SHT30;57391;51.306;22.680;2024-01-15T07:51:36;1.71;74.95
70051;SHT30;57391;51.306;22.680;2024-01-15T07:53:38;1.73;74.82
70051;SHT30;57391;51.306;22.680;2024-01-15T07:55:39;1.75;74.80
70051;SHT30;57391;51.306;22.680;2024-01-15T07:57:41;1.74;75.70
70051;SHT30;57391;51.306;22.680;2024-01-15T07:59:43;1.75;75.64
70051;SHT30;57391;51.306;22.680;2024-01-15T08:01:45;1.77;75.21
70051;SHT30;57391;51.306;22.680;2024-01-15T08:03:48;1.78;75.34
70051;SHT30;57391;51.306;22.680;2024-01-15T08:05:50;1.78;75.47
70051;SHT30;57391;51.306;22.680;2024-01-15T08:07:54;1.76;77.21
70051;SHT30;57391;51.306;22.680;2024-01-15T08:09:55;1.68;79.66
70051;SHT30;57391;51.306;22.680;2024-01-15T08:11:57;1.58;81.91
70051;SHT30;57391;51.306;22.680;2024-01-15T08:13:59;1.48;82.90
70051;SHT30;57391;51.306;22.680;2024-01-15T08:16:01;1.39;83.13
70051;SHT30;57391;51.306;22.680;2024-01-15T08:18:03;1.33;83.44
70051;SHT30;57391;51.306;22.680;2024-01-15T08:20:05;1.28;83.51
70051;SHT30;57391;51.306;22.680;2024-01-15T08:22:07;1.23;83.89
70051;SHT30;57391;51.306;22.680;2024-01-15T08:24:10;1.19;83.85
70051;SHT30;57391;51.306;22.680;2024-01-15T08:26:11;1.17;83.82
70051;SHT30;57391;51.306;22.680;2024-01-15T08:28:13;1.16;83.81
70051;SHT30;57391;51.306;22.680;2024-01-15T08:30:15;1.15;83.74
70051;SHT30;57391;51.306;22.680;2024-01-15T08:32:17;1.14;83.80
70051;SHT30;57391;51.306;22.680;2024-01-15T08:34:18;1.11;83.95
70051;SHT30;57391;51.306;22.680;2024-01-15T08:36:21;1.08;84.88
70051;SHT30;57391;51.306;22.680;2024-01-15T08:38:23;1.05;85.39
70051;SHT30;57391;51.306;22.680;2024-01-15T08:40:26;1.05;85.22
70051;SHT30;57391;51.306;22.680;2024-01-15T08:42:28;1.06;84.93
70051;SHT30;57391;51.306;22.680;2024-01-15T08:44:30;1.09;84.51
70051;SHT30;57391;51.306;22.680;2024-01-15T08:46:32;1.16;83.95
70051;SHT30;57391;51.306;22.680;2024-01-15T08:48:36;1.20;83.40
70051;SHT30;57391;51.306;22.680;2024-01-15T08:50:38;1.24;82.78
70051;SHT30;57391;51.306;22.680;2024-01-15T08:52:40;1.26;82.24
70051;SHT30;57391;51.306;22.680;2024-01-15T08:54:42;1.28;81.91
70051;SHT30;57391;51.306;22.680;2024-01-15T08:56:44;1.31;81.39
70051;SHT30;57391;51.306;22.680;2024-01-15T08:58:45;1.33;81.05
70051;SHT30;57391;51.306;22.680;2024-01-15T09:00:47;1.38;80.71
70051;SHT30;57391;51.306;22.680;2024-01-15T09:02:49;1.41;80.36
70051;SHT30;57391;51.306;22.680;2024-01-15T09:04:51;1.51;80.18
70051;SHT30;57391;51.306;22.680;2024-01-15T09:06:53;1.60;79.82
70051;SHT30;57391;51.306;22.680;2024-01-15T09:08:54;1.68;79.22
70051;SHT30;57391;51.306;22.680;2024-01-15T09:10:59;1.73;78.86
70051;SHT30;57391;51.306;22.680;2024-01-15T09:13:04;1.76;78.53
70051;SHT30;57391;51.306;22.680;2024-01-15T09:15:06;1.78;78.39
70051;SHT30;57391;51.306;22.680;2024-01-15T09:17:11;1.83;78.16
70051;SHT30;57391;51.306;22.680;2024-01-15T09:19:15;1.85;77.74
70051;SHT30;57391;51.306;22.680;2024-01-15T09:21:17;1.86;77.72
70051;SHT30;57391;51.306;22.680;2024-01-15T09:23:18;1.87;77.71
70051;SHT30;57391;51.306;22.680;2024-01-15T09:25:20;1.87;77.85
70051;SHT30;57391;51.306;22.680;2024-01-15T09:27:22;1.85;78.11
70051;SHT30;57391;51.306;22.680;2024-01-15T09:29:24;1.86;78.05
70051;SHT30;57391;51.306;22.680;2024-01-15T09:31:26;1.89;78.07
70051;SHT30;57391;51.306;22.680;2024-01-15T09:33:28;1.90;78.03
70051;SHT30;57391;51.306;22.680;2024-01-15T09:35:30;1.95;77.80
70051;SHT30;57391;51.306;22.680;2024-01-15T09:37:32;2.01;77.54
70051;SHT30;57391;51.306;22.680;2024-01-15T09:39:35;2.03;77.50
70051;SHT30;57391;51.306;22.680;2024-01-15T09:41:38;2.07;77.45
70051;SHT30;57391;51.306;22.680;2024-01-15T09:43:40;2.09;77.35
70051;SHT30;57391;51.306;22.680;2024-01-15T09:45:42;2.11;76.96
70051;SHT30;57391;51.306;22.680;2024-01-15T09:47:44;2.12;76.63
70051;SHT30;57391;51.306;22.680;2024-01-15T09:49:46;2.13;76.65
70051;SHT30;57391;51.306;22.680;2024-01-15T09:51:49;2.13;76.16
70051;SHT30;57391;51.306;22.680;2024-01-15T09:53:51;2.14;76.11
70051;SHT30;57391;51.306;22.680;2024-01-15T09:55:54;2.14;75.96
70051;SHT30;57391;51.306;22.680;2024-01-15T09:57:56;2.18;75.99
70051;SHT30;57391;51.306;22.680;2024-01-15T10:00:00;2.20;75.57
70051;SHT30;57391;51.306;22.680;2024-01-15T10:02:07;2.24;75.70
70051;SHT30;57391;51.306;22.680;2024-01-15T10:04:11;2.25;75.45
70051;SHT30;57391;51.306;22.680;2024-01-15T10:06:16;2.29;75.38
70051;SHT30;57391;51.306;22.680;2024-01-15T10:08:19;2.31;75.38
70051;SHT30;57391;51.306;22.680;2024-01-15T10:10:22;2.31;75.53
70051;SHT30;57391;51.306;22.680;2024-01-15T10:12:24;2.29;76.84
70051;SHT30;57391;51.306;22.680;2024-01-15T10:14:28;2.31;77.45
70051;SHT30;57391;51.306;22.680;2024-01-15T10:16:31;2.33;76.68
70051;SHT30;57391;51.306;22.680;2024-01-15T10:18:33;2.33;76.41
70051;SHT30;57391;51.306;22.680;2024-01-15T10:20:35;2.34;76.47
70051;SHT30;57391;51.306;22.680;2024-01-15T10:22:39;2.34;76.22
70051;SHT30;57391;51.306;22.680;2024-01-15T10:24:43;2.34;76.29
70051;SHT30;57391;51.306;22.680;2024-01-15T10:26:45;2.31;76.43
70051;SHT30;57391;51.306;22.680;2024-01-15T10:28:50;2.27;76.13
70051;SHT30;57391;51.306;22.680;2024-01-15T10:30:54;2.25;76.00
70051;SHT30;57391;51.306;22.680;2024-01-15T10:33:00;2.26;75.57
70051;SHT30;57391;51.306;22.680;2024-01-15T10:35:05;2.31;75.04
70051;SHT30;57391;51.306;22.680;2024-01-15T10:37:09;2.38;74.74
70051;SHT30;57391;51.306;22.680;2024-01-15T10:39:13;2.42;74.14
70051;SHT30;57391;51.306;22.680;2024-01-15T10:41:15;2.44;74.06
70051;SHT30;57391;51.306;22.680;2024-01-15T10:43:17;2.44;74.19
70051;SHT30;57391;51.306;22.680;2024-01-15T10:45:19;2.43;73.99
70051;SHT30;57391;51.306;22.680;2024-01-15T10:47:21;2.41;74.04
70051;SHT30;57391;51.306;22.680;2024-01-15T10:49:24;2.39;74.06
70051;SHT30;57391;51.306;22.680;2024-01-15T10:51:30;2.36;73.80
70051;SHT30;57391;51.306;22.680;2024-01-15T10:53:32;2.34;73.68
70051;SHT30;57391;51.306;22.680;2024-01-15T10:55:36;2.35;73.74
70051;SHT30;57391;51.306;22.680;2024-01-15T10:57:40;2.38;73.43
70051;SHT30;57391;51.306;22.680;2024-01-15T10:59:42;2.40;72.84
70051;SHT30;57391;51.306;22.680;2024-01-15T11:01:44;2.40;72.76
70051;SHT30;57391;51.306;22.680;2024-01-15T11:03:47;2.37;72.57
70051;SHT30;57391;51.306;22.680;2024-01-15T11:05:50;2.35;72.09
70051;SHT30;57391;51.306;22.680;2024-01-15T11:07:58;2.32;73.14
70051;SHT30;57391;51.306;22.680;2024-01-15T11:10:03;2.29;73.91
70051;SHT30;57391;51.306;22.680;2024-01-15T11:12:12;2.26;73.45
70051;SHT30;57391;51.306;22.680;2024-01-15T11:14:33;2.21;73.25
70051;SHT30;57391;51.306;22.680;2024-01-15T11:16:53;2.20;73.26
70051;SHT30;57391;51.306;22.680;2024-01-15T11:19:04;2.16;72.81
70051;SHT30;57391;51.306;22.680;2024-01-15T11:23:41;2.14;72.85
70051;SHT30;57391;51.306;22.680;2024-01-15T11:25:50;2.12;72.66
70051;SHT30;57391;51.306;22.680;2024-01-15T11:28:51;2.12;72.57
70051;SHT30;57391;51.306;22.680;2024-01-15T11:30:53;2.12;72.86
70051;SHT30;57391;51.306;22.680;2024-01-15T11:32:54;2.12;72.81
70051;SHT30;57391;51.306;22.680;2024-01-15T11:34:57;2.12;72.46
70051;SHT30;57391;51.306;22.680;2024-01-15T11:37:03;2.12;72.43
70051;SHT30;57391;51.306;22.680;2024-01-15T11:39:39;2.12;72.14
70051;SHT30;57391;51.306;22.680;2024-01-15T11:41:29;2.11;72.00
70051;SHT30;57391;51.306;22.680;2024-01-15T11:43:31;2.12;71.99
70051;SHT30;57391;51.306;22.680;2024-01-15T11:45:34;2.12;71.90
70051;SHT30;57391;51.306;22.680;2024-01-15T11:50:15;2.15;72.29
70051;SHT30;57391;51.306;22.680;2024-01-15T11:52:17;2.17;72.34
70051;SHT30;57391;51.306;22.680;2024-01-15T11:54:22;2.20;72.06
70051;SHT30;57391;51.306;22.680;2024-01-15T11:56:26;2.28;71.46
70051;SHT30;57391;51.306;22.680;2024-01-15T11:58:28;2.37;71.13
70051;SHT30;57391;51.306;22.680;2024-01-15T12:00:31;2.47;70.38
70051;SHT30;57391;51.306;22.680;2024-01-15T12:02:33;2.57;69.44
70051;SHT30;57391;51.306;22.680;2024-01-15T12:04:35;2.63;69.01
70051;SHT30;57391;51.306;22.680;2024-01-15T12:06:37;2.67;68.81
70051;SHT30;57391;51.306;22.680;2024-01-15T12:08:42;2.71;68.68
70051;SHT30;57391;51.306;22.680;2024-01-15T12:10:44;2.76;68.93
70051;SHT30;57391;51.306;22.680;2024-01-15T12:12:54;2.75;68.31
70051;SHT30;57391;51.306;22.680;2024-01-15T12:15:00;2.71;68.11
70051;SHT30;57391;51.306;22.680;2024-01-15T12:17:02;2.67;68.07
70051;SHT30;57391;51.306;22.680;2024-01-15T12:19:04;2.64;68.51
70051;SHT30;57391;51.306;22.680;2024-01-15T12:21:07;2.61;68.56
70051;SHT30;57391;51.306;22.680;2024-01-15T12:23:11;2.62;68.96
70051;SHT30;57391;51.306;22.680;2024-01-15T12:25:12;2.63;68.50
70051;SHT30;57391;51.306;22.680;2024-01-15T12:27:14;2.64;68.09
70051;SHT30;57391;51.306;22.680;2024-01-15T12:29:17;2.65;68.24
70051;SHT30;57391;51.306;22.680;2024-01-15T12:31:19;2.63;68.11
70051;SHT30;57391;51.306;22.680;2024-01-15T12:33:21;2.60;68.16
70051;SHT30;57391;51.306;22.680;2024-01-15T12:35:24;2.63;68.24
70051;SHT30;57391;51.306;22.680;2024-01-15T12:37:31;2.72;68.13
70051;SHT30;57391;51.306;22.680;2024-01-15T12:39:35;2.81;68.06
70051;SHT30;57391;51.306;22.680;2024-01-15T12:41:39;2.91;67.80
70051;SHT30;57391;51.306;22.680;2024-01-15T12:43:41;2.98;67.07
70051;SHT30;57391;51.306;22.680;2024-01-15T12:45:43;2.99;66.44
70051;SHT30;57391;51.306;22.680;2024-01-15T12:47:45;2.97;66.39
70051;SHT30;57391;51.306;22.680;2024-01-15T12:49:47;2.94;66.16
70051;SHT30;57391;51.306;22.680;2024-01-15T12:51:52;2.94;66.25
70051;SHT30;57391;51.306;22.680;2024-01-15T12:54:03;2.93;66.26
70051;SHT30;57391;51.306;22.680;2024-01-15T12:56:04;2.98;66.00
70051;SHT30;57391;51.306;22.680;2024-01-15T12:58:06;3.02;65.95
70051;SHT30;57391;51.306;22.680;2024-01-15T13:00:08;3.03;65.59